THY889 LTAI-UZTT
Flight info
| Callsign | THY889 |
|---|---|
| Flight time | N/A |
| Altitude | 37000 |
| Route | TEWHE UR55 MUT/N0485F360 UA285 SELVI/N0487F370 UA285 SIV UA4 ERZ UB374 INDUR N161 EDATA M11 LUSAL N199 RASAM L88 METKA B476 DARVA/K0895F370 T898 OGOLI N193 DIBAD DIBAD2T |
| Aircraft | B77W/H-SDE1E2E3FGHIJ2J3J4J5M1RWXY/LB1D1 |
Departure
| Time | 2026-05-06 12:37 |
|---|---|
| Airport | Antalya International Airport (LTAI) |
Arrival
| Time | N/A |
|---|---|
| Airport | Tashkent International Airport (UZTT) |
| Time | Latitude | Longitude | Altitude | Speed | Heading |
|---|---|---|---|---|---|
| 2026-05-06 11:53 | 36.89723 | 30.79800 | 192 ft | 0 kts | 341° |
| 2026-05-06 12:26 | 36.89716 | 30.79803 | 192 ft | 2 kts | 341° |
| 2026-05-06 12:26 | 36.89702 | 30.79809 | 191 ft | 2 kts | 341° |
| 2026-05-06 12:26 | 36.89687 | 30.79815 | 191 ft | 2 kts | 341° |
| 2026-05-06 12:27 | 36.89673 | 30.79821 | 191 ft | 2 kts | 341° |
| 2026-05-06 12:27 | 36.89659 | 30.79827 | 192 ft | 2 kts | 355° |
| 2026-05-06 12:27 | 36.89646 | 30.79822 | 192 ft | 2 kts | 43° |
| 2026-05-06 12:27 | 36.89639 | 30.79808 | 191 ft | 2 kts | 83° |
| 2026-05-06 12:28 | 36.89639 | 30.79798 | 191 ft | 1 kts | 97° |
| 2026-05-06 12:28 | 36.89639 | 30.79796 | 191 ft | 0 kts | 97° |
| 2026-05-06 12:30 | 36.89639 | 30.79798 | 191 ft | 3 kts | 95° |
| 2026-05-06 12:30 | 36.89634 | 30.79899 | 191 ft | 12 kts | 96° |
| 2026-05-06 12:31 | 36.89623 | 30.80002 | 191 ft | 10 kts | 102° |
| 2026-05-06 12:31 | 36.89621 | 30.80019 | 191 ft | 2 kts | 96° |
| 2026-05-06 12:31 | 36.89619 | 30.80038 | 191 ft | 4 kts | 97° |
| 2026-05-06 12:31 | 36.89610 | 30.80139 | 191 ft | 17 kts | 96° |
| 2026-05-06 12:32 | 36.89597 | 30.80289 | 191 ft | 11 kts | 97° |
| 2026-05-06 12:32 | 36.89595 | 30.80307 | 191 ft | 11 kts | 97° |
| 2026-05-06 12:32 | 36.89592 | 30.80337 | 191 ft | 12 kts | 97° |
| 2026-05-06 12:32 | 36.89577 | 30.80503 | 191 ft | 22 kts | 97° |
| 2026-05-06 12:33 | 36.89570 | 30.80649 | 191 ft | 13 kts | 66° |
| 2026-05-06 12:33 | 36.89654 | 30.80701 | 191 ft | 13 kts | 8° |
| 2026-05-06 12:33 | 36.89746 | 30.80713 | 191 ft | 13 kts | 6° |
| 2026-05-06 12:33 | 36.89898 | 30.80734 | 191 ft | 28 kts | 6° |
| 2026-05-06 12:34 | 36.90089 | 30.80761 | 191 ft | 26 kts | 6° |
| 2026-05-06 12:34 | 36.90266 | 30.80784 | 191 ft | 24 kts | 6° |
| 2026-05-06 12:34 | 36.90433 | 30.80807 | 192 ft | 23 kts | 6° |
| 2026-05-06 12:34 | 36.90590 | 30.80829 | 192 ft | 21 kts | 7° |
| 2026-05-06 12:35 | 36.90736 | 30.80850 | 192 ft | 20 kts | 7° |
| 2026-05-06 12:35 | 36.90873 | 30.80868 | 192 ft | 19 kts | 6° |
| 2026-05-06 12:35 | 36.91001 | 30.80883 | 192 ft | 17 kts | 5° |
| 2026-05-06 12:35 | 36.91097 | 30.80898 | 192 ft | 8 kts | 13° |
| 2026-05-06 12:36 | 36.91132 | 30.80931 | 192 ft | 5 kts | 58° |
| 2026-05-06 12:36 | 36.91139 | 30.80988 | 192 ft | 8 kts | 95° |
| 2026-05-06 12:36 | 36.91133 | 30.81065 | 192 ft | 11 kts | 95° |
| 2026-05-06 12:36 | 36.91093 | 30.81134 | 192 ft | 9 kts | 177° |
| 2026-05-06 12:37 | 36.91072 | 30.81133 | 192 ft | 10 kts | 185° |
| 2026-05-06 12:37 | 36.90653 | 30.81075 | 192 ft | 110 kts | 186° |
| 2026-05-06 12:37 | 36.89632 | 30.80916 | 518 ft | 170 kts | 190° |
| 2026-05-06 12:37 | 36.88519 | 30.80817 | 1761 ft | 162 kts | 176° |
| 2026-05-06 12:38 | 36.87394 | 30.80960 | 2408 ft | 171 kts | 173° |
| 2026-05-06 12:38 | 36.86180 | 30.81163 | 2993 ft | 185 kts | 172° |
| 2026-05-06 12:38 | 36.84868 | 30.81406 | 3601 ft | 200 kts | 172° |
| 2026-05-06 12:38 | 36.83447 | 30.81685 | 4259 ft | 215 kts | 172° |
| 2026-05-06 12:39 | 36.81917 | 30.81937 | 5042 ft | 225 kts | 174° |
| 2026-05-06 12:39 | 36.80348 | 30.82175 | 5787 ft | 238 kts | 170° |
| 2026-05-06 12:39 | 36.78715 | 30.82855 | 6361 ft | 257 kts | 152° |
| 2026-05-06 12:39 | 36.77090 | 30.83930 | 7038 ft | 274 kts | 152° |
| 2026-05-06 12:40 | 36.75438 | 30.85126 | 7897 ft | 281 kts | 140° |
| 2026-05-06 12:40 | 36.74243 | 30.87012 | 8763 ft | 288 kts | 115° |
| 2026-05-06 12:40 | 36.73688 | 30.89418 | 9675 ft | 292 kts | 100° |
| 2026-05-06 12:40 | 36.73397 | 30.91932 | 10504 ft | 301 kts | 96° |
| 2026-05-06 12:41 | 36.73190 | 30.94575 | 11145 ft | 319 kts | 94° |
| 2026-05-06 12:41 | 36.72990 | 30.97397 | 11729 ft | 338 kts | 95° |
| 2026-05-06 12:41 | 36.72746 | 31.00374 | 12362 ft | 355 kts | 95° |
| 2026-05-06 12:41 | 36.72492 | 31.03519 | 13016 ft | 371 kts | 95° |
| 2026-05-06 12:42 | 36.72229 | 31.06746 | 13618 ft | 386 kts | 95° |
| 2026-05-06 12:42 | 36.71954 | 31.10151 | 14203 ft | 401 kts | 94° |
| 2026-05-06 12:42 | 36.71960 | 31.13673 | 14811 ft | 414 kts | 84° |
| 2026-05-06 12:42 | 36.72245 | 31.17227 | 15652 ft | 420 kts | 82° |
| 2026-05-06 12:43 | 36.72556 | 31.20836 | 16499 ft | 425 kts | 82° |
| 2026-05-06 12:43 | 36.72870 | 31.24496 | 17284 ft | 430 kts | 82° |
| 2026-05-06 12:43 | 36.73189 | 31.28231 | 18042 ft | 436 kts | 82° |
| 2026-05-06 12:43 | 36.73737 | 31.31938 | 18769 ft | 440 kts | 73° |
| 2026-05-06 12:44 | 36.74795 | 31.35534 | 19501 ft | 444 kts | 63° |
| 2026-05-06 12:44 | 36.76339 | 31.38864 | 20229 ft | 446 kts | 52° |
| 2026-05-06 12:44 | 36.78316 | 31.41814 | 20944 ft | 448 kts | 42° |
| 2026-05-06 12:44 | 36.80637 | 31.44417 | 21648 ft | 451 kts | 38° |
| 2026-05-06 12:45 | 36.82993 | 31.46935 | 22323 ft | 455 kts | 38° |
| 2026-05-06 12:45 | 36.85393 | 31.49522 | 23055 ft | 460 kts | 38° |
| 2026-05-06 12:45 | 36.90263 | 31.54849 | 24224 ft | 472 kts | 39° |
| 2026-05-06 12:46 | 36.92520 | 31.57874 | 24794 ft | 481 kts | 48° |
| 2026-05-06 12:46 | 36.94416 | 31.61382 | 25391 ft | 490 kts | 57° |
| 2026-05-06 12:46 | 36.95857 | 31.65222 | 25990 ft | 499 kts | 67° |
| 2026-05-06 12:46 | 36.96841 | 31.69446 | 26599 ft | 507 kts | 76° |
| 2026-05-06 12:47 | 36.97276 | 31.73792 | 27225 ft | 515 kts | 86° |
| 2026-05-06 12:47 | 36.97207 | 31.78276 | 27851 ft | 521 kts | 94° |
| 2026-05-06 12:47 | 36.96638 | 31.82767 | 28380 ft | 530 kts | 102° |
| 2026-05-06 12:47 | 36.95520 | 31.87215 | 29010 ft | 535 kts | 111° |
| 2026-05-06 12:48 | 36.93956 | 31.91367 | 29879 ft | 533 kts | 115° |
| 2026-05-06 12:48 | 36.92578 | 31.95627 | 30851 ft | 527 kts | 107° |
| 2026-05-06 12:48 | 36.91700 | 32.00006 | 31715 ft | 522 kts | 99° |
| 2026-05-06 12:48 | 36.91136 | 32.04509 | 32489 ft | 520 kts | 96° |
| 2026-05-06 12:49 | 36.90713 | 32.08937 | 33188 ft | 520 kts | 95° |
| 2026-05-06 12:49 | 36.90364 | 32.13445 | 33871 ft | 519 kts | 94° |
| 2026-05-06 12:49 | 36.90079 | 32.17902 | 34558 ft | 518 kts | 92° |
| 2026-05-06 12:49 | 36.89835 | 32.22382 | 35209 ft | 517 kts | 92° |
| 2026-05-06 12:50 | 36.89622 | 32.26865 | 35755 ft | 515 kts | 91° |
| 2026-05-06 12:50 | 36.89431 | 32.31325 | 36023 ft | 519 kts | 91° |
| 2026-05-06 12:50 | 36.89257 | 32.35843 | 36014 ft | 519 kts | 91° |
| 2026-05-06 12:51 | 36.88946 | 32.44814 | 35826 ft | 513 kts | 91° |
| 2026-05-06 12:51 | 36.88662 | 32.53755 | 35735 ft | 516 kts | 90° |
| 2026-05-06 12:52 | 36.88393 | 32.62667 | 35803 ft | 516 kts | 90° |
| 2026-05-06 12:52 | 36.88125 | 32.71642 | 35899 ft | 516 kts | 91° |
| 2026-05-06 12:53 | 36.88035 | 32.74632 | 35936 ft | 516 kts | 91° |
| 2026-05-06 12:54 | 36.87266 | 32.99755 | 35793 ft | 517 kts | 91° |
| 2026-05-06 12:54 | 36.86979 | 33.08730 | 35859 ft | 516 kts | 91° |
| 2026-05-06 12:55 | 36.86788 | 33.17598 | 36043 ft | 515 kts | 85° |
| 2026-05-06 12:55 | 36.87226 | 33.22048 | 36150 ft | 513 kts | 76° |
| 2026-05-06 12:55 | 36.88177 | 33.26285 | 36337 ft | 509 kts | 66° |
| 2026-05-06 12:56 | 36.91492 | 33.34081 | 36142 ft | 505 kts | 49° |
| 2026-05-06 12:56 | 36.96231 | 33.40353 | 35971 ft | 497 kts | 39° |
| 2026-05-06 12:57 | 37.01282 | 33.46238 | 35861 ft | 496 kts | 38° |
| 2026-05-06 12:57 | 37.06325 | 33.52081 | 35854 ft | 496 kts | 38° |
| 2026-05-06 12:58 | 37.11384 | 33.57933 | 36121 ft | 495 kts | 38° |
| 2026-05-06 12:58 | 37.13926 | 33.60872 | 36326 ft | 496 kts | 38° |
| 2026-05-06 12:58 | 37.16465 | 33.63808 | 36530 ft | 496 kts | 38° |
| 2026-05-06 12:58 | 37.19004 | 33.66747 | 36727 ft | 497 kts | 39° |
| 2026-05-06 12:59 | 37.21534 | 33.69676 | 36919 ft | 498 kts | 39° |
| 2026-05-06 12:59 | 37.24091 | 33.72639 | 37101 ft | 499 kts | 39° |
| 2026-05-06 12:59 | 37.26610 | 33.75560 | 37128 ft | 500 kts | 39° |
| 2026-05-06 13:00 | 37.31722 | 33.81496 | 37020 ft | 500 kts | 39° |
| 2026-05-06 13:00 | 37.34275 | 33.84463 | 36888 ft | 500 kts | 39° |
| 2026-05-06 13:00 | 37.36821 | 33.87426 | 36727 ft | 500 kts | 39° |
| 2026-05-06 13:00 | 37.39356 | 33.90378 | 36556 ft | 499 kts | 39° |
| 2026-05-06 13:01 | 37.41883 | 33.93324 | 36444 ft | 498 kts | 39° |
| 2026-05-06 13:01 | 37.46963 | 33.99260 | 36262 ft | 498 kts | 39° |
| 2026-05-06 13:02 | 37.52026 | 34.05195 | 36163 ft | 497 kts | 39° |
| 2026-05-06 13:02 | 37.57053 | 34.11099 | 36091 ft | 496 kts | 39° |
| 2026-05-06 13:03 | 37.62087 | 34.17023 | 36051 ft | 497 kts | 39° |
| 2026-05-06 13:03 | 37.67160 | 34.23003 | 36059 ft | 498 kts | 39° |
| 2026-05-06 13:04 | 37.72168 | 34.28919 | 36328 ft | 496 kts | 39° |
| 2026-05-06 13:04 | 37.74717 | 34.31934 | 36539 ft | 498 kts | 39° |
| 2026-05-06 13:04 | 37.77216 | 34.34892 | 36750 ft | 499 kts | 39° |
| 2026-05-06 13:04 | 37.79758 | 34.37907 | 36959 ft | 499 kts | 39° |
| 2026-05-06 13:05 | 37.82299 | 34.40922 | 37068 ft | 502 kts | 39° |
| 2026-05-06 13:05 | 37.87360 | 34.46934 | 37125 ft | 502 kts | 39° |
| 2026-05-06 13:06 | 37.92446 | 34.52984 | 37185 ft | 503 kts | 39° |
| 2026-05-06 13:06 | 37.97552 | 34.59058 | 37201 ft | 503 kts | 39° |
| 2026-05-06 13:07 | 38.02619 | 34.65096 | 37183 ft | 504 kts | 40° |
| 2026-05-06 13:07 | 38.07758 | 34.71233 | 37134 ft | 505 kts | 40° |
| 2026-05-06 13:08 | 38.12854 | 34.77334 | 37105 ft | 504 kts | 40° |
| 2026-05-06 13:08 | 38.17957 | 34.83453 | 37113 ft | 504 kts | 40° |
| 2026-05-06 13:09 | 38.23048 | 34.89570 | 37131 ft | 504 kts | 40° |
| 2026-05-06 13:09 | 38.28136 | 34.95694 | 37144 ft | 505 kts | 40° |
| 2026-05-06 13:10 | 38.33257 | 35.01838 | 37161 ft | 506 kts | 40° |
| 2026-05-06 13:10 | 38.38371 | 35.07964 | 37153 ft | 505 kts | 38° |
| 2026-05-06 13:11 | 38.43746 | 35.13720 | 37146 ft | 505 kts | 37° |
| 2026-05-06 13:11 | 38.49142 | 35.19462 | 37129 ft | 505 kts | 37° |
| 2026-05-06 13:12 | 38.54443 | 35.25271 | 37109 ft | 507 kts | 41° |
| 2026-05-06 13:12 | 38.59427 | 35.31679 | 37123 ft | 508 kts | 42° |
| 2026-05-06 13:13 | 38.64404 | 35.38100 | 37133 ft | 509 kts | 42° |
| 2026-05-06 13:13 | 38.69361 | 35.44476 | 37124 ft | 509 kts | 42° |
| 2026-05-06 13:14 | 38.74349 | 35.50887 | 37099 ft | 509 kts | 42° |
| 2026-05-06 13:14 | 38.79332 | 35.57294 | 37104 ft | 509 kts | 42° |
| 2026-05-06 13:15 | 38.84324 | 35.63721 | 37130 ft | 509 kts | 42° |
| 2026-05-06 13:15 | 38.89314 | 35.70157 | 37145 ft | 509 kts | 43° |
| 2026-05-06 13:16 | 38.94297 | 35.76593 | 37154 ft | 509 kts | 43° |
| 2026-05-06 13:16 | 38.99365 | 35.82927 | 37135 ft | 508 kts | 41° |
| 2026-05-06 13:17 | 39.04456 | 35.89240 | 37126 ft | 508 kts | 41° |
| 2026-05-06 13:17 | 39.09502 | 35.95519 | 37119 ft | 507 kts | 41° |
| 2026-05-06 13:18 | 39.14584 | 36.01860 | 37102 ft | 506 kts | 42° |
| 2026-05-06 13:18 | 39.19497 | 36.08288 | 37101 ft | 507 kts | 44° |
| 2026-05-06 13:19 | 39.24352 | 36.14853 | 37106 ft | 506 kts | 44° |
| 2026-05-06 13:19 | 39.28402 | 36.20329 | 37101 ft | 507 kts | 44° |
| 2026-05-06 13:20 | 39.34084 | 36.28015 | 37145 ft | 508 kts | 44° |
| 2026-05-06 13:20 | 39.38964 | 36.34626 | 37154 ft | 507 kts | 44° |
| 2026-05-06 13:21 | 39.43840 | 36.41243 | 37152 ft | 507 kts | 44° |
| 2026-05-06 13:21 | 39.48673 | 36.47814 | 37143 ft | 507 kts | 44° |
| 2026-05-06 13:22 | 39.52724 | 36.53334 | 37136 ft | 507 kts | 44° |
| 2026-05-06 13:22 | 39.58361 | 36.61040 | 37124 ft | 507 kts | 45° |
| 2026-05-06 13:23 | 39.63202 | 36.67673 | 37112 ft | 507 kts | 45° |
| 2026-05-06 13:23 | 39.67453 | 36.73509 | 37107 ft | 507 kts | 45° |
| 2026-05-06 13:24 | 39.72212 | 36.80056 | 37103 ft | 507 kts | 45° |
| 2026-05-06 13:24 | 39.76597 | 36.87250 | 37100 ft | 510 kts | 59° |
| 2026-05-06 13:25 | 39.79223 | 36.95794 | 37105 ft | 512 kts | 77° |
| 2026-05-06 13:25 | 39.80204 | 37.04912 | 37112 ft | 512 kts | 84° |
| 2026-05-06 13:26 | 39.80959 | 37.14073 | 37116 ft | 512 kts | 84° |
| 2026-05-06 13:26 | 39.81706 | 37.23275 | 37122 ft | 512 kts | 84° |
| 2026-05-06 13:27 | 39.82439 | 37.32431 | 37130 ft | 513 kts | 84° |
| 2026-05-06 13:27 | 39.83169 | 37.41663 | 37142 ft | 513 kts | 84° |
| 2026-05-06 13:28 | 39.83877 | 37.50802 | 37155 ft | 513 kts | 85° |
| 2026-05-06 13:28 | 39.84580 | 37.60018 | 37156 ft | 513 kts | 85° |
| 2026-05-06 13:29 | 39.85278 | 37.69264 | 37141 ft | 513 kts | 85° |
| 2026-05-06 13:29 | 39.85969 | 37.78517 | 37126 ft | 513 kts | 85° |
| 2026-05-06 13:30 | 39.86650 | 37.87737 | 37131 ft | 513 kts | 85° |
| 2026-05-06 13:30 | 39.87324 | 37.96959 | 37145 ft | 512 kts | 85° |
| 2026-05-06 13:31 | 39.87432 | 37.98455 | 37147 ft | 512 kts | 85° |
| 2026-05-06 13:31 | 39.88699 | 38.15845 | 37150 ft | 512 kts | 85° |
| 2026-05-06 13:32 | 39.89362 | 38.25095 | 37028 ft | 514 kts | 85° |
| 2026-05-06 13:32 | 39.89688 | 38.29686 | 36890 ft | 513 kts | 85° |
| 2026-05-06 13:32 | 39.90012 | 38.34278 | 36729 ft | 513 kts | 85° |
| 2026-05-06 13:32 | 39.90338 | 38.38905 | 36555 ft | 512 kts | 85° |
| 2026-05-06 13:33 | 39.90658 | 38.43487 | 36425 ft | 512 kts | 85° |
| 2026-05-06 13:33 | 39.90980 | 38.48120 | 36304 ft | 513 kts | 85° |
| 2026-05-06 13:33 | 39.91296 | 38.52711 | 36186 ft | 513 kts | 86° |
| 2026-05-06 13:34 | 39.91926 | 38.61917 | 36346 ft | 510 kts | 86° |
| 2026-05-06 13:34 | 39.92238 | 38.66515 | 36562 ft | 512 kts | 86° |
| 2026-05-06 13:34 | 39.92553 | 38.71188 | 36774 ft | 515 kts | 86° |
| 2026-05-06 13:34 | 39.92863 | 38.75827 | 36984 ft | 516 kts | 86° |
| 2026-05-06 13:35 | 39.93172 | 38.80454 | 37090 ft | 518 kts | 86° |
| 2026-05-06 13:35 | 39.93787 | 38.89787 | 37114 ft | 517 kts | 87° |
| 2026-05-06 13:36 | 39.93975 | 38.99160 | 37127 ft | 517 kts | 91° |
| 2026-05-06 13:36 | 39.94081 | 39.08542 | 37142 ft | 517 kts | 91° |
| 2026-05-06 13:37 | 39.94206 | 39.17858 | 37164 ft | 518 kts | 91° |
| 2026-05-06 13:37 | 39.94340 | 39.27243 | 37095 ft | 519 kts | 91° |
| 2026-05-06 13:38 | 39.94473 | 39.36610 | 37167 ft | 520 kts | 91° |
| 2026-05-06 13:38 | 39.94600 | 39.45982 | 37154 ft | 519 kts | 91° |
| 2026-05-06 13:39 | 39.94721 | 39.55329 | 37141 ft | 519 kts | 91° |
| 2026-05-06 13:39 | 39.94839 | 39.64725 | 37154 ft | 520 kts | 91° |
| 2026-05-06 13:40 | 39.94951 | 39.74123 | 37161 ft | 520 kts | 91° |
| 2026-05-06 13:40 | 39.95054 | 39.83514 | 37174 ft | 520 kts | 92° |
| 2026-05-06 13:41 | 39.95151 | 39.92895 | 37182 ft | 520 kts | 92° |
| 2026-05-06 13:41 | 39.95236 | 40.02296 | 37169 ft | 520 kts | 92° |
| 2026-05-06 13:42 | 39.95313 | 40.11704 | 37156 ft | 520 kts | 92° |
| 2026-05-06 13:42 | 39.95381 | 40.21112 | 37144 ft | 523 kts | 92° |
| 2026-05-06 13:43 | 39.95443 | 40.30573 | 37145 ft | 519 kts | 92° |
| 2026-05-06 13:43 | 39.95498 | 40.39980 | 37178 ft | 520 kts | 92° |
| 2026-05-06 13:44 | 39.95546 | 40.49438 | 37211 ft | 520 kts | 92° |
| 2026-05-06 13:44 | 39.95585 | 40.58850 | 37225 ft | 521 kts | 92° |
| 2026-05-06 13:45 | 39.95617 | 40.68315 | 37219 ft | 521 kts | 92° |
| 2026-05-06 13:45 | 39.95654 | 40.82488 | 37171 ft | 522 kts | 92° |
| 2026-05-06 13:46 | 39.95670 | 40.91980 | 37145 ft | 522 kts | 92° |
| 2026-05-06 13:46 | 39.95679 | 41.01379 | 37124 ft | 522 kts | 92° |
| 2026-05-06 13:47 | 39.95679 | 41.10886 | 37120 ft | 524 kts | 93° |
| 2026-05-06 13:47 | 39.95693 | 41.20422 | 37116 ft | 525 kts | 90° |
| 2026-05-06 13:48 | 39.96333 | 41.29904 | 37120 ft | 527 kts | 86° |
| 2026-05-06 13:48 | 39.97047 | 41.39389 | 37110 ft | 527 kts | 86° |
| 2026-05-06 13:49 | 39.97750 | 41.48889 | 37103 ft | 527 kts | 86° |
| 2026-05-06 13:49 | 39.98446 | 41.58429 | 37096 ft | 528 kts | 87° |
| 2026-05-06 13:50 | 39.99128 | 41.67958 | 37085 ft | 528 kts | 88° |
| 2026-05-06 13:50 | 39.99809 | 41.77484 | 37077 ft | 527 kts | 87° |
| 2026-05-06 13:51 | 40.00509 | 41.87080 | 37073 ft | 527 kts | 87° |
| 2026-05-06 13:51 | 40.01193 | 41.96563 | 37074 ft | 526 kts | 87° |
| 2026-05-06 13:52 | 40.01870 | 42.06059 | 37078 ft | 526 kts | 87° |
| 2026-05-06 13:52 | 40.02537 | 42.15545 | 37085 ft | 526 kts | 87° |
| 2026-05-06 13:53 | 40.03199 | 42.25061 | 37090 ft | 526 kts | 87° |
| 2026-05-06 13:53 | 40.03849 | 42.34531 | 37121 ft | 526 kts | 87° |
| 2026-05-06 13:54 | 40.04497 | 42.44096 | 37184 ft | 527 kts | 87° |
| 2026-05-06 13:54 | 40.05092 | 42.53565 | 37245 ft | 527 kts | 88° |
| 2026-05-06 13:55 | 40.05676 | 42.63090 | 37215 ft | 526 kts | 88° |
| 2026-05-06 13:55 | 40.06250 | 42.72560 | 37172 ft | 525 kts | 88° |
| 2026-05-06 13:56 | 40.06818 | 42.82059 | 37161 ft | 524 kts | 88° |
| 2026-05-06 13:56 | 40.07376 | 42.91506 | 37190 ft | 525 kts | 88° |
| 2026-05-06 13:57 | 40.07930 | 43.00973 | 37217 ft | 524 kts | 88° |
| 2026-05-06 13:57 | 40.08482 | 43.10482 | 37229 ft | 524 kts | 88° |
| 2026-05-06 13:58 | 40.09025 | 43.19962 | 37233 ft | 525 kts | 88° |
| 2026-05-06 13:58 | 40.09557 | 43.29427 | 37229 ft | 526 kts | 88° |
| 2026-05-06 13:59 | 40.10081 | 43.38902 | 37165 ft | 526 kts | 88° |
| 2026-05-06 13:59 | 40.10601 | 43.48488 | 37100 ft | 526 kts | 89° |
| 2026-05-06 14:00 | 40.11112 | 43.58038 | 37046 ft | 527 kts | 89° |
| 2026-05-06 14:00 | 40.11725 | 43.67542 | 36992 ft | 530 kts | 83° |
| 2026-05-06 14:01 | 40.13041 | 43.76953 | 36978 ft | 532 kts | 82° |
| 2026-05-06 14:01 | 40.14411 | 43.86488 | 36981 ft | 533 kts | 82° |
| 2026-05-06 14:02 | 40.15775 | 43.96048 | 36987 ft | 533 kts | 82° |
| 2026-05-06 14:02 | 40.17114 | 44.05518 | 36991 ft | 533 kts | 82° |
| 2026-05-06 14:03 | 40.18456 | 44.15081 | 36995 ft | 534 kts | 82° |
| 2026-05-06 14:03 | 40.19778 | 44.24577 | 36997 ft | 534 kts | 82° |
| 2026-05-06 14:04 | 40.21104 | 44.34155 | 37007 ft | 534 kts | 82° |
| 2026-05-06 14:04 | 40.22410 | 44.43653 | 37027 ft | 534 kts | 82° |
| 2026-05-06 14:05 | 40.23712 | 44.53182 | 37048 ft | 533 kts | 82° |
| 2026-05-06 14:05 | 40.25026 | 44.62683 | 37089 ft | 534 kts | 81° |
| 2026-05-06 14:06 | 40.26389 | 44.72194 | 37123 ft | 534 kts | 82° |
| 2026-05-06 14:06 | 40.27744 | 44.81712 | 37182 ft | 534 kts | 82° |
| 2026-05-06 14:07 | 40.28988 | 44.90514 | 37028 ft | 538 kts | 82° |
| 2026-05-06 14:07 | 40.29678 | 44.95415 | 36796 ft | 535 kts | 82° |
| 2026-05-06 14:07 | 40.30347 | 45.00193 | 36587 ft | 533 kts | 82° |
| 2026-05-06 14:08 | 40.31016 | 45.04980 | 36419 ft | 532 kts | 82° |
| 2026-05-06 14:08 | 40.31675 | 45.09710 | 36589 ft | 530 kts | 82° |
| 2026-05-06 14:08 | 40.32329 | 45.14429 | 36793 ft | 532 kts | 82° |
| 2026-05-06 14:08 | 40.32988 | 45.19206 | 36986 ft | 535 kts | 82° |
| 2026-05-06 14:09 | 40.33651 | 45.24022 | 37109 ft | 538 kts | 82° |
| 2026-05-06 14:09 | 40.34320 | 45.28876 | 37118 ft | 538 kts | 82° |
| 2026-05-06 14:09 | 40.35632 | 45.38471 | 37135 ft | 538 kts | 82° |
| 2026-05-06 14:10 | 40.36944 | 45.48132 | 36966 ft | 539 kts | 82° |
| 2026-05-06 14:10 | 40.37588 | 45.52892 | 36862 ft | 538 kts | 82° |
| 2026-05-06 14:10 | 40.38238 | 45.57717 | 36842 ft | 538 kts | 82° |
| 2026-05-06 14:11 | 40.38892 | 45.62590 | 36667 ft | 542 kts | 82° |
| 2026-05-06 14:11 | 40.39556 | 45.67427 | 36465 ft | 541 kts | 82° |
| 2026-05-06 14:11 | 40.40269 | 45.72289 | 36295 ft | 538 kts | 82° |
| 2026-05-06 14:11 | 40.40981 | 45.77123 | 36355 ft | 537 kts | 82° |
| 2026-05-06 14:12 | 40.42391 | 45.86780 | 36232 ft | 544 kts | 82° |
| 2026-05-06 14:12 | 40.43103 | 45.91675 | 36094 ft | 543 kts | 82° |
| 2026-05-06 14:12 | 40.43809 | 45.96560 | 35936 ft | 543 kts | 82° |
| 2026-05-06 14:13 | 40.44511 | 46.01432 | 35759 ft | 543 kts | 82° |
| 2026-05-06 14:13 | 40.45203 | 46.06243 | 35849 ft | 538 kts | 82° |
| 2026-05-06 14:13 | 40.45900 | 46.11120 | 36065 ft | 541 kts | 82° |
| 2026-05-06 14:13 | 40.46584 | 46.15924 | 36273 ft | 543 kts | 82° |
| 2026-05-06 14:14 | 40.47274 | 46.20783 | 36483 ft | 544 kts | 82° |
| 2026-05-06 14:14 | 40.47968 | 46.25683 | 36694 ft | 545 kts | 82° |
| 2026-05-06 14:14 | 40.48656 | 46.30555 | 36899 ft | 546 kts | 82° |
| 2026-05-06 14:14 | 40.49347 | 46.35467 | 36979 ft | 547 kts | 82° |
| 2026-05-06 14:15 | 40.50711 | 46.45214 | 37025 ft | 544 kts | 82° |
| 2026-05-06 14:15 | 40.52068 | 46.54974 | 37036 ft | 543 kts | 82° |
| 2026-05-06 14:16 | 40.53413 | 46.64705 | 37042 ft | 543 kts | 82° |
| 2026-05-06 14:16 | 40.54749 | 46.74436 | 37023 ft | 541 kts | 83° |
| 2026-05-06 14:17 | 40.56072 | 46.84144 | 37015 ft | 540 kts | 83° |
| 2026-05-06 14:17 | 40.57387 | 46.93843 | 37012 ft | 540 kts | 83° |
| 2026-05-06 14:18 | 40.58688 | 47.03506 | 37019 ft | 540 kts | 83° |
| 2026-05-06 14:18 | 40.59994 | 47.13277 | 37028 ft | 540 kts | 83° |
| 2026-05-06 14:19 | 40.60498 | 47.22956 | 37032 ft | 533 kts | 96° |
| 2026-05-06 14:19 | 40.60253 | 47.32696 | 37033 ft | 533 kts | 96° |
| 2026-05-06 14:20 | 40.59980 | 47.42407 | 37037 ft | 533 kts | 96° |
| 2026-05-06 14:20 | 40.59697 | 47.52082 | 37041 ft | 534 kts | 96° |
| 2026-05-06 14:21 | 40.59401 | 47.61859 | 37041 ft | 534 kts | 96° |
| 2026-05-06 14:21 | 40.59099 | 47.71551 | 37029 ft | 533 kts | 97° |
| 2026-05-06 14:22 | 40.58787 | 47.81284 | 37024 ft | 534 kts | 97° |
| 2026-05-06 14:22 | 40.58466 | 47.91020 | 37021 ft | 534 kts | 97° |
| 2026-05-06 14:23 | 40.58333 | 48.00785 | 37026 ft | 539 kts | 92° |
| 2026-05-06 14:23 | 40.58670 | 48.10614 | 37028 ft | 540 kts | 92° |
| 2026-05-06 14:24 | 40.58982 | 48.20470 | 37029 ft | 540 kts | 92° |
| 2026-05-06 14:24 | 40.59266 | 48.30310 | 37025 ft | 540 kts | 92° |
| 2026-05-06 14:25 | 40.59528 | 48.40126 | 37024 ft | 540 kts | 92° |
| 2026-05-06 14:25 | 40.59777 | 48.49957 | 37025 ft | 539 kts | 92° |
| 2026-05-06 14:26 | 40.60014 | 48.59773 | 37028 ft | 538 kts | 92° |
| 2026-05-06 14:26 | 40.60241 | 48.69616 | 37022 ft | 537 kts | 93° |
| 2026-05-06 14:27 | 40.60457 | 48.79416 | 37026 ft | 537 kts | 93° |
| 2026-05-06 14:27 | 40.60665 | 48.89218 | 37030 ft | 537 kts | 93° |
| 2026-05-06 14:28 | 40.60863 | 48.99011 | 37033 ft | 537 kts | 93° |
| 2026-05-06 14:28 | 40.61053 | 49.08830 | 37003 ft | 538 kts | 93° |
| 2026-05-06 14:29 | 40.61236 | 49.18640 | 36970 ft | 536 kts | 93° |
| 2026-05-06 14:29 | 40.61693 | 49.28464 | 37010 ft | 540 kts | 89° |
| 2026-05-06 14:30 | 40.62295 | 49.38283 | 37009 ft | 541 kts | 89° |
| 2026-05-06 14:30 | 40.62875 | 49.48102 | 37010 ft | 541 kts | 89° |
| 2026-05-06 14:31 | 40.63441 | 49.57997 | 37012 ft | 541 kts | 89° |
| 2026-05-06 14:31 | 40.63990 | 49.67841 | 37004 ft | 541 kts | 90° |
| 2026-05-06 14:32 | 40.64527 | 49.77680 | 37002 ft | 541 kts | 90° |
| 2026-05-06 14:32 | 40.65056 | 49.87544 | 37002 ft | 542 kts | 90° |
| 2026-05-06 14:33 | 40.65579 | 49.97477 | 37004 ft | 542 kts | 90° |
| 2026-05-06 14:33 | 40.66090 | 50.07358 | 37012 ft | 542 kts | 90° |
| 2026-05-06 14:34 | 40.66589 | 50.17184 | 37014 ft | 541 kts | 90° |
| 2026-05-06 14:34 | 40.67083 | 50.27050 | 37005 ft | 541 kts | 90° |
| 2026-05-06 14:35 | 40.67568 | 50.36933 | 37004 ft | 541 kts | 90° |
| 2026-05-06 14:35 | 40.68043 | 50.46784 | 37006 ft | 541 kts | 90° |
| 2026-05-06 14:36 | 40.68508 | 50.56622 | 37006 ft | 540 kts | 90° |
| 2026-05-06 14:36 | 40.68966 | 50.66481 | 37004 ft | 540 kts | 91° |
| 2026-05-06 14:37 | 40.69412 | 50.76276 | 36995 ft | 538 kts | 91° |
| 2026-05-06 14:37 | 40.69853 | 50.86138 | 36996 ft | 538 kts | 91° |
| 2026-05-06 14:38 | 40.70282 | 50.95924 | 36996 ft | 538 kts | 91° |
| 2026-05-06 14:38 | 40.70704 | 51.05738 | 36997 ft | 538 kts | 91° |
| 2026-05-06 14:39 | 40.71116 | 51.15507 | 36997 ft | 538 kts | 91° |
| 2026-05-06 14:39 | 40.71522 | 51.25344 | 36997 ft | 537 kts | 91° |
| 2026-05-06 14:40 | 40.71919 | 51.35136 | 36993 ft | 537 kts | 91° |
| 2026-05-06 14:40 | 40.72304 | 51.44890 | 36991 ft | 536 kts | 91° |
| 2026-05-06 14:41 | 40.73248 | 51.54660 | 36992 ft | 542 kts | 81° |
| 2026-05-06 14:41 | 40.74860 | 51.64360 | 36987 ft | 542 kts | 81° |
| 2026-05-06 14:42 | 40.76463 | 51.74031 | 36974 ft | 542 kts | 81° |
| 2026-05-06 14:42 | 40.78047 | 51.83684 | 36971 ft | 541 kts | 81° |
| 2026-05-06 14:43 | 40.79628 | 51.93388 | 36966 ft | 542 kts | 81° |
| 2026-05-06 14:43 | 40.81201 | 52.03105 | 36962 ft | 542 kts | 81° |
| 2026-05-06 14:44 | 40.82765 | 52.12827 | 36961 ft | 542 kts | 81° |
| 2026-05-06 14:45 | 40.85090 | 52.27395 | 36970 ft | 541 kts | 81° |
| 2026-05-06 14:45 | 40.86624 | 52.37079 | 36964 ft | 541 kts | 81° |
| 2026-05-06 14:46 | 40.88157 | 52.46807 | 36955 ft | 541 kts | 81° |
| 2026-05-06 14:46 | 40.89676 | 52.56510 | 36956 ft | 541 kts | 81° |
| 2026-05-06 14:47 | 40.90571 | 52.66254 | 36954 ft | 535 kts | 91° |
| 2026-05-06 14:47 | 40.91004 | 52.76049 | 36945 ft | 534 kts | 91° |
| 2026-05-06 14:48 | 40.91420 | 52.85826 | 36946 ft | 534 kts | 91° |
| 2026-05-06 14:48 | 40.91828 | 52.95615 | 36946 ft | 534 kts | 91° |
| 2026-05-06 14:49 | 40.92229 | 53.05421 | 36947 ft | 534 kts | 91° |
| 2026-05-06 14:49 | 40.92619 | 53.15185 | 36948 ft | 534 kts | 91° |
| 2026-05-06 14:50 | 40.92993 | 53.25006 | 36946 ft | 534 kts | 91° |
| 2026-05-06 14:50 | 40.93356 | 53.34778 | 36946 ft | 534 kts | 91° |
| 2026-05-06 14:51 | 40.93713 | 53.44579 | 36946 ft | 534 kts | 91° |
| 2026-05-06 14:51 | 40.94060 | 53.54319 | 36946 ft | 535 kts | 91° |
| 2026-05-06 14:52 | 40.94400 | 53.64123 | 36946 ft | 535 kts | 91° |
| 2026-05-06 14:52 | 40.94732 | 53.73927 | 36933 ft | 534 kts | 92° |
| 2026-05-06 14:53 | 40.95057 | 53.83773 | 36934 ft | 535 kts | 92° |
| 2026-05-06 14:53 | 40.95375 | 53.93654 | 36934 ft | 534 kts | 92° |
| 2026-05-06 14:54 | 40.95681 | 54.03429 | 36934 ft | 534 kts | 92° |
| 2026-05-06 14:54 | 40.95980 | 54.13240 | 36940 ft | 534 kts | 92° |
| 2026-05-06 14:55 | 40.96270 | 54.23031 | 36952 ft | 534 kts | 92° |
| 2026-05-06 14:55 | 40.96554 | 54.32888 | 36953 ft | 534 kts | 92° |
| 2026-05-06 14:56 | 40.96826 | 54.42619 | 36947 ft | 534 kts | 92° |
| 2026-05-06 14:56 | 40.97094 | 54.52506 | 36948 ft | 534 kts | 92° |
| 2026-05-06 14:57 | 40.97349 | 54.62277 | 36949 ft | 534 kts | 92° |
| 2026-05-06 14:57 | 40.97597 | 54.72016 | 36939 ft | 533 kts | 92° |
| 2026-05-06 14:58 | 40.97837 | 54.81822 | 36941 ft | 533 kts | 92° |
| 2026-05-06 14:58 | 40.98069 | 54.91647 | 36951 ft | 532 kts | 92° |
| 2026-05-06 14:59 | 40.98261 | 55.00454 | 36961 ft | 532 kts | 92° |
| 2026-05-06 14:59 | 40.98454 | 55.09644 | 36968 ft | 532 kts | 92° |
| 2026-05-06 15:00 | 40.98653 | 55.19439 | 36973 ft | 532 kts | 92° |
| 2026-05-06 15:00 | 40.98845 | 55.29210 | 36977 ft | 532 kts | 92° |
| 2026-05-06 15:01 | 40.99027 | 55.39001 | 36976 ft | 532 kts | 92° |
| 2026-05-06 15:01 | 40.99200 | 55.48775 | 36975 ft | 532 kts | 92° |
| 2026-05-06 15:02 | 40.99366 | 55.58573 | 36968 ft | 532 kts | 92° |
| 2026-05-06 15:02 | 40.99533 | 55.68299 | 36945 ft | 531 kts | 92° |
| 2026-05-06 15:03 | 40.99681 | 55.77493 | 36938 ft | 532 kts | 93° |